sensor_id;sensor_type;location;lat;lon;timestamp;P1;durP1;ratioP1;P2;durP2;ratioP2
52368;SDS011;38298;50.346;3.526;2024-01-11T00:00:37;36.22;;;14.90;;
52368;SDS011;38298;50.346;3.526;2024-01-11T00:03:03;35.25;;;15.32;;
52368;SDS011;38298;50.346;3.526;2024-01-11T00:05:29;51.20;;;15.57;;
52368;SDS011;38298;50.346;3.526;2024-01-11T00:07:55;41.67;;;15.52;;
52368;SDS011;38298;50.346;3.526;2024-01-11T00:10:22;37.67;;;14.30;;
52368;SDS011;38298;50.346;3.526;2024-01-11T00:12:48;38.72;;;15.52;;
52368;SDS011;38298;50.346;3.526;2024-01-11T00:15:14;36.63;;;13.30;;
52368;SDS011;38298;50.346;3.526;2024-01-11T00:17:40;45.70;;;14.77;;
52368;SDS011;38298;50.346;3.526;2024-01-11T00:20:06;42.42;;;14.77;;
52368;SDS011;38298;50.346;3.526;2024-01-11T00:22:32;41.08;;;15.30;;
52368;SDS011;38298;50.346;3.526;2024-01-11T00:24:58;41.35;;;14.43;;
52368;SDS011;38298;50.346;3.526;2024-01-11T00:27:24;38.90;;;15.52;;
52368;SDS011;38298;50.346;3.526;2024-01-11T00:29:50;40.08;;;14.57;;
52368;SDS011;38298;50.346;3.526;2024-01-11T00:32:16;41.40;;;14.45;;
52368;SDS011;38298;50.346;3.526;2024-01-11T00:34:42;50.05;;;15.63;;
52368;SDS011;38298;50.346;3.526;2024-01-11T00:37:08;44.97;;;15.48;;
52368;SDS011;38298;50.346;3.526;2024-01-11T00:39:34;44.38;;;15.38;;
52368;SDS011;38298;50.346;3.526;2024-01-11T00:42:00;44.83;;;16.02;;
52368;SDS011;38298;50.346;3.526;2024-01-11T00:44:27;36.13;;;13.85;;
52368;SDS011;38298;50.346;3.526;2024-01-11T00:46:52;41.90;;;14.77;;
52368;SDS011;38298;50.346;3.526;2024-01-11T00:49:19;39.83;;;15.25;;
52368;SDS011;38298;50.346;3.526;2024-01-11T00:51:45;41.70;;;15.38;;
52368;SDS011;38298;50.346;3.526;2024-01-11T00:54:11;38.30;;;14.98;;
52368;SDS011;38298;50.346;3.526;2024-01-11T00:56:37;44.88;;;15.20;;
52368;SDS011;38298;50.346;3.526;2024-01-11T00:59:03;39.60;;;14.55;;
52368;SDS011;38298;50.346;3.526;2024-01-11T01:01:29;40.33;;;15.35;;
52368;SDS011;38298;50.346;3.526;2024-01-11T01:03:55;42.38;;;14.25;;
52368;SDS011;38298;50.346;3.526;2024-01-11T01:06:21;39.33;;;14.48;;
52368;SDS011;38298;50.346;3.526;2024-01-11T01:08:47;43.20;;;14.93;;
52368;SDS011;38298;50.346;3.526;2024-01-11T01:11:13;39.97;;;14.20;;
52368;SDS011;38298;50.346;3.526;2024-01-11T01:13:39;36.53;;;14.25;;
52368;SDS011;38298;50.346;3.526;2024-01-11T01:16:05;40.67;;;13.70;;
52368;SDS011;38298;50.346;3.526;2024-01-11T01:18:31;41.88;;;14.77;;
52368;SDS011;38298;50.346;3.526;2024-01-11T01:20:57;34.97;;;13.80;;
52368;SDS011;38298;50.346;3.526;2024-01-11T01:23:23;36.28;;;14.25;;
52368;SDS011;38298;50.346;3.526;2024-01-11T01:25:50;35.78;;;13.35;;
52368;SDS011;38298;50.346;3.526;2024-01-11T01:28:16;34.83;;;14.10;;
52368;SDS011;38298;50.346;3.526;2024-01-11T01:30:42;44.72;;;14.63;;
52368;SDS011;38298;50.346;3.526;2024-01-11T01:33:08;42.03;;;15.15;;
52368;SDS011;38298;50.346;3.526;2024-01-11T01:35:34;36.92;;;15.50;;
52368;SDS011;38298;50.346;3.526;2024-01-11T01:38:01;39.45;;;14.20;;
52368;SDS011;38298;50.346;3.526;2024-01-11T01:40:29;37.97;;;14.30;;
52368;SDS011;38298;50.346;3.526;2024-01-11T01:42:59;42.67;;;15.00;;
52368;SDS011;38298;50.346;3.526;2024-01-11T01:45:25;45.05;;;15.20;;
52368;SDS011;38298;50.346;3.526;2024-01-11T01:47:52;39.55;;;15.25;;
52368;SDS011;38298;50.346;3.526;2024-01-11T01:50:20;35.90;;;15.38;;
52368;SDS011;38298;50.346;3.526;2024-01-11T01:52:46;33.10;;;14.07;;
52368;SDS011;38298;50.346;3.526;2024-01-11T01:55:13;40.50;;;15.30;;
52368;SDS011;38298;50.346;3.526;2024-01-11T01:57:40;44.10;;;14.70;;
52368;SDS011;38298;50.346;3.526;2024-01-11T02:00:08;35.65;;;14.35;;
52368;SDS011;38298;50.346;3.526;2024-01-11T02:02:35;37.10;;;13.90;;
52368;SDS011;38298;50.346;3.526;2024-01-11T02:05:01;36.55;;;13.77;;
52368;SDS011;38298;50.346;3.526;2024-01-11T02:07:27;41.47;;;14.93;;
52368;SDS011;38298;50.346;3.526;2024-01-11T02:09:53;41.20;;;14.05;;
52368;SDS011;38298;50.346;3.526;2024-01-11T02:12:20;38.25;;;15.00;;
52368;SDS011;38298;50.346;3.526;2024-01-11T02:14:46;43.13;;;15.35;;
52368;SDS011;38298;50.346;3.526;2024-01-11T02:17:12;40.55;;;13.82;;
52368;SDS011;38298;50.346;3.526;2024-01-11T02:19:38;35.05;;;14.70;;
52368;SDS011;38298;50.346;3.526;2024-01-11T02:22:05;42.08;;;14.20;;
52368;SDS011;38298;50.346;3.526;2024-01-11T02:24:33;39.13;;;14.93;;
52368;SDS011;38298;50.346;3.526;2024-01-11T02:27:03;39.42;;;14.93;;
52368;SDS011;38298;50.346;3.526;2024-01-11T02:31:55;40.58;;;15.02;;
52368;SDS011;38298;50.346;3.526;2024-01-11T02:34:26;36.45;;;14.77;;
52368;SDS011;38298;50.346;3.526;2024-01-11T02:39:18;38.67;;;14.20;;
52368;SDS011;38298;50.346;3.526;2024-01-11T02:41:45;38.22;;;14.23;;
52368;SDS011;38298;50.346;3.526;2024-01-11T02:44:11;36.95;;;14.15;;
52368;SDS011;38298;50.346;3.526;2024-01-11T02:46:37;36.85;;;13.77;;
52368;SDS011;38298;50.346;3.526;2024-01-11T02:49:03;36.03;;;14.48;;
52368;SDS011;38298;50.346;3.526;2024-01-11T02:51:29;38.08;;;14.40;;
52368;SDS011;38298;50.346;3.526;2024-01-11T02:53:55;45.60;;;14.93;;
52368;SDS011;38298;50.346;3.526;2024-01-11T02:56:21;40.72;;;15.65;;
52368;SDS011;38298;50.346;3.526;2024-01-11T02:58:48;39.53;;;14.77;;
52368;SDS011;38298;50.346;3.526;2024-01-11T03:01:14;39.00;;;14.65;;
52368;SDS011;38298;50.346;3.526;2024-01-11T03:03:40;40.70;;;14.48;;
52368;SDS011;38298;50.346;3.526;2024-01-11T03:06:07;45.97;;;16.02;;
52368;SDS011;38298;50.346;3.526;2024-01-11T03:08:33;41.90;;;15.70;;
52368;SDS011;38298;50.346;3.526;2024-01-11T03:10:59;42.95;;;13.80;;
52368;SDS011;38298;50.346;3.526;2024-01-11T03:13:25;39.78;;;15.20;;
52368;SDS011;38298;50.346;3.526;2024-01-11T03:15:51;37.28;;;13.32;;
52368;SDS011;38298;50.346;3.526;2024-01-11T03:18:17;47.67;;;15.23;;
52368;SDS011;38298;50.346;3.526;2024-01-11T03:20:43;37.25;;;14.30;;
52368;SDS011;38298;50.346;3.526;2024-01-11T03:23:09;39.25;;;15.15;;
52368;SDS011;38298;50.346;3.526;2024-01-11T03:25:35;44.78;;;15.30;;
52368;SDS011;38298;50.346;3.526;2024-01-11T03:28:01;39.13;;;14.60;;
52368;SDS011;38298;50.346;3.526;2024-01-11T03:30:27;37.78;;;13.63;;
52368;SDS011;38298;50.346;3.526;2024-01-11T03:32:54;42.33;;;14.93;;
52368;SDS011;38298;50.346;3.526;2024-01-11T03:35:20;40.50;;;15.05;;
52368;SDS011;38298;50.346;3.526;2024-01-11T03:37:46;41.72;;;14.85;;
52368;SDS011;38298;50.346;3.526;2024-01-11T03:40:12;41.83;;;13.88;;
52368;SDS011;38298;50.346;3.526;2024-01-11T03:42:39;40.35;;;14.80;;
52368;SDS011;38298;50.346;3.526;2024-01-11T03:45:05;49.03;;;15.48;;
52368;SDS011;38298;50.346;3.526;2024-01-11T03:47:31;42.55;;;14.70;;
52368;SDS011;38298;50.346;3.526;2024-01-11T03:49:57;45.00;;;14.75;;
52368;SDS011;38298;50.346;3.526;2024-01-11T03:52:23;36.30;;;14.27;;
52368;SDS011;38298;50.346;3.526;2024-01-11T03:54:49;40.90;;;14.30;;
52368;SDS011;38298;50.346;3.526;2024-01-11T03:57:15;36.35;;;14.27;;
52368;SDS011;38298;50.346;3.526;2024-01-11T03:59:42;43.05;;;16.10;;
52368;SDS011;38298;50.346;3.526;2024-01-11T04:02:08;37.42;;;14.15;;
52368;SDS011;38298;50.346;3.526;2024-01-11T04:04:34;45.80;;;14.70;;
52368;SDS011;38298;50.346;3.526;2024-01-11T04:07:00;43.03;;;13.88;;
52368;SDS011;38298;50.346;3.526;2024-01-11T04:09:27;39.47;;;15.23;;
52368;SDS011;38298;50.346;3.526;2024-01-11T04:11:53;38.08;;;15.35;;
52368;SDS011;38298;50.346;3.526;2024-01-11T04:14:19;38.08;;;14.98;;
52368;SDS011;38298;50.346;3.526;2024-01-11T04:16:45;39.95;;;13.80;;
52368;SDS011;38298;50.346;3.526;2024-01-11T04:19:11;44.25;;;15.25;;
52368;SDS011;38298;50.346;3.526;2024-01-11T04:21:37;39.05;;;14.10;;
52368;SDS011;38298;50.346;3.526;2024-01-11T04:24:04;49.35;;;14.77;;
52368;SDS011;38298;50.346;3.526;2024-01-11T04:26:33;40.50;;;15.40;;
52368;SDS011;38298;50.346;3.526;2024-01-11T04:28:59;42.42;;;14.57;;
52368;SDS011;38298;50.346;3.526;2024-01-11T04:31:26;36.17;;;14.25;;
52368;SDS011;38298;50.346;3.526;2024-01-11T04:33:52;43.13;;;14.88;;
52368;SDS011;38298;50.346;3.526;2024-01-11T04:36:18;44.22;;;15.35;;
52368;SDS011;38298;50.346;3.526;2024-01-11T04:38:44;45.50;;;15.88;;
52368;SDS011;38298;50.346;3.526;2024-01-11T04:41:10;53.15;;;15.88;;
52368;SDS011;38298;50.346;3.526;2024-01-11T04:43:37;62.03;;;19.05;;
52368;SDS011;38298;50.346;3.526;2024-01-11T04:46:12;64.10;;;19.08;;
52368;SDS011;38298;50.346;3.526;2024-01-11T04:48:38;78.68;;;20.48;;
52368;SDS011;38298;50.346;3.526;2024-01-11T04:51:04;71.63;;;19.63;;
52368;SDS011;38298;50.346;3.526;2024-01-11T04:53:30;51.63;;;17.92;;
52368;SDS011;38298;50.346;3.526;2024-01-11T04:55:56;41.80;;;16.15;;
52368;SDS011;38298;50.346;3.526;2024-01-11T04:58:22;46.00;;;16.63;;
52368;SDS011;38298;50.346;3.526;2024-01-11T05:00:48;41.30;;;15.02;;
52368;SDS011;38298;50.346;3.526;2024-01-11T05:03:14;51.33;;;14.82;;
52368;SDS011;38298;50.346;3.526;2024-01-11T05:05:40;48.35;;;15.50;;
52368;SDS011;38298;50.346;3.526;2024-01-11T05:08:06;40.22;;;14.48;;
52368;SDS011;38298;50.346;3.526;2024-01-11T05:10:32;41.63;;;14.82;;
52368;SDS011;38298;50.346;3.526;2024-01-11T05:12:58;40.22;;;15.65;;
52368;SDS011;38298;50.346;3.526;2024-01-11T05:15:24;40.67;;;15.13;;
52368;SDS011;38298;50.346;3.526;2024-01-11T05:17:50;40.70;;;14.30;;
52368;SDS011;38298;50.346;3.526;2024-01-11T05:20:16;39.65;;;15.05;;
52368;SDS011;38298;50.346;3.526;2024-01-11T05:22:42;41.78;;;14.32;;
52368;SDS011;38298;50.346;3.526;2024-01-11T05:25:08;39.75;;;13.90;;
52368;SDS011;38298;50.346;3.526;2024-01-11T05:27:34;40.97;;;15.63;;
52368;SDS011;38298;50.346;3.526;2024-01-11T05:30:00;41.85;;;14.77;;
52368;SDS011;38298;50.346;3.526;2024-01-11T05:32:26;33.65;;;13.07;;
52368;SDS011;38298;50.346;3.526;2024-01-11T05:34:52;39.72;;;14.70;;
52368;SDS011;38298;50.346;3.526;2024-01-11T05:37:18;36.30;;;13.90;;
52368;SDS011;38298;50.346;3.526;2024-01-11T05:39:45;42.38;;;14.40;;
52368;SDS011;38298;50.346;3.526;2024-01-11T05:42:12;49.22;;;14.27;;
52368;SDS011;38298;50.346;3.526;2024-01-11T05:44:38;38.53;;;14.18;;
52368;SDS011;38298;50.346;3.526;2024-01-11T05:47:04;43.85;;;16.20;;
52368;SDS011;38298;50.346;3.526;2024-01-11T05:49:30;39.15;;;14.90;;
52368;SDS011;38298;50.346;3.526;2024-01-11T05:51:56;45.10;;;15.10;;
52368;SDS011;38298;50.346;3.526;2024-01-11T05:54:22;41.78;;;14.85;;
52368;SDS011;38298;50.346;3.526;2024-01-11T05:56:48;37.88;;;14.15;;
52368;SDS011;38298;50.346;3.526;2024-01-11T05:59:15;45.53;;;14.55;;
52368;SDS011;38298;50.346;3.526;2024-01-11T06:01:41;44.95;;;15.75;;
52368;SDS011;38298;50.346;3.526;2024-01-11T06:06:37;46.95;;;15.10;;
52368;SDS011;38298;50.346;3.526;2024-01-11T06:09:03;36.13;;;13.90;;
52368;SDS011;38298;50.346;3.526;2024-01-11T06:11:29;35.60;;;13.63;;
52368;SDS011;38298;50.346;3.526;2024-01-11T06:13:55;38.78;;;13.75;;
52368;SDS011;38298;50.346;3.526;2024-01-11T06:16:22;34.65;;;13.20;;
52368;SDS011;38298;50.346;3.526;2024-01-11T06:18:48;37.83;;;14.40;;
52368;SDS011;38298;50.346;3.526;2024-01-11T06:21:14;37.13;;;14.05;;
52368;SDS011;38298;50.346;3.526;2024-01-11T06:23:42;37.25;;;13.70;;
52368;SDS011;38298;50.346;3.526;2024-01-11T06:26:08;49.53;;;15.68;;
52368;SDS011;38298;50.346;3.526;2024-01-11T06:28:34;37.25;;;14.20;;
52368;SDS011;38298;50.346;3.526;2024-01-11T06:31:00;42.63;;;14.25;;
52368;SDS011;38298;50.346;3.526;2024-01-11T06:33:26;36.65;;;13.07;;
52368;SDS011;38298;50.346;3.526;2024-01-11T06:35:52;35.75;;;14.15;;
52368;SDS011;38298;50.346;3.526;2024-01-11T06:38:18;41.72;;;14.32;;
52368;SDS011;38298;50.346;3.526;2024-01-11T06:40:44;38.00;;;13.50;;
52368;SDS011;38298;50.346;3.526;2024-01-11T06:43:10;35.38;;;12.88;;
52368;SDS011;38298;50.346;3.526;2024-01-11T06:45:36;42.20;;;14.85;;
52368;SDS011;38298;50.346;3.526;2024-01-11T06:48:02;38.88;;;14.32;;
52368;SDS011;38298;50.346;3.526;2024-01-11T06:50:28;41.88;;;14.98;;
52368;SDS011;38298;50.346;3.526;2024-01-11T06:52:54;48.75;;;16.42;;
52368;SDS011;38298;50.346;3.526;2024-01-11T06:55:20;34.30;;;14.23;;
52368;SDS011;38298;50.346;3.526;2024-01-11T06:57:47;31.35;;;13.80;;
52368;SDS011;38298;50.346;3.526;2024-01-11T07:00:13;33.15;;;14.05;;
52368;SDS011;38298;50.346;3.526;2024-01-11T07:02:39;43.60;;;14.95;;
52368;SDS011;38298;50.346;3.526;2024-01-11T07:05:05;39.45;;;14.27;;
52368;SDS011;38298;50.346;3.526;2024-01-11T07:07:31;36.53;;;15.15;;
52368;SDS011;38298;50.346;3.526;2024-01-11T07:09:58;39.20;;;14.77;;
52368;SDS011;38298;50.346;3.526;2024-01-11T07:12:24;36.10;;;14.40;;
52368;SDS011;38298;50.346;3.526;2024-01-11T07:14:53;34.33;;;13.77;;
52368;SDS011;38298;50.346;3.526;2024-01-11T07:17:19;45.08;;;15.85;;
52368;SDS011;38298;50.346;3.526;2024-01-11T07:19:45;36.97;;;14.02;;
52368;SDS011;38298;50.346;3.526;2024-01-11T07:22:11;41.53;;;15.18;;
52368;SDS011;38298;50.346;3.526;2024-01-11T07:24:42;40.20;;;15.35;;
52368;SDS011;38298;50.346;3.526;2024-01-11T07:27:08;44.72;;;14.70;;
52368;SDS011;38298;50.346;3.526;2024-01-11T07:29:34;39.28;;;15.30;;
52368;SDS011;38298;50.346;3.526;2024-01-11T07:32:00;40.58;;;15.48;;
52368;SDS011;38298;50.346;3.526;2024-01-11T07:34:27;44.95;;;15.25;;
52368;SDS011;38298;50.346;3.526;2024-01-11T07:36:53;39.00;;;13.95;;
52368;SDS011;38298;50.346;3.526;2024-01-11T07:39:19;43.00;;;15.43;;
52368;SDS011;38298;50.346;3.526;2024-01-11T07:41:47;38.72;;;14.85;;
52368;SDS011;38298;50.346;3.526;2024-01-11T07:44:13;37.10;;;14.82;;
52368;SDS011;38298;50.346;3.526;2024-01-11T07:46:39;39.90;;;14.25;;
52368;SDS011;38298;50.346;3.526;2024-01-11T07:49:05;36.97;;;13.98;;
52368;SDS011;38298;50.346;3.526;2024-01-11T07:51:32;36.97;;;13.65;;
52368;SDS011;38298;50.346;3.526;2024-01-11T07:53:59;37.35;;;14.50;;
52368;SDS011;38298;50.346;3.526;2024-01-11T07:56:25;42.13;;;15.73;;
52368;SDS011;38298;50.346;3.526;2024-01-11T07:58:51;39.15;;;14.75;;
52368;SDS011;38298;50.346;3.526;2024-01-11T08:01:18;39.97;;;14.48;;
52368;SDS011;38298;50.346;3.526;2024-01-11T08:03:44;41.78;;;16.08;;
52368;SDS011;38298;50.346;3.526;2024-01-11T08:06:10;41.78;;;15.05;;
52368;SDS011;38298;50.346;3.526;2024-01-11T08:08:39;42.78;;;14.65;;
52368;SDS011;38298;50.346;3.526;2024-01-11T08:11:08;39.85;;;15.23;;
52368;SDS011;38298;50.346;3.526;2024-01-11T08:13:35;43.97;;;15.85;;
52368;SDS011;38298;50.346;3.526;2024-01-11T08:16:02;40.97;;;15.50;;
52368;SDS011;38298;50.346;3.526;2024-01-11T08:18:30;40.13;;;15.85;;
52368;SDS011;38298;50.346;3.526;2024-01-11T08:20:56;49.47;;;16.85;;
52368;SDS011;38298;50.346;3.526;2024-01-11T08:23:22;39.70;;;16.27;;
52368;SDS011;38298;50.346;3.526;2024-01-11T08:25:48;41.10;;;16.95;;
52368;SDS011;38298;50.346;3.526;2024-01-11T08:28:14;42.45;;;16.33;;
52368;SDS011;38298;50.346;3.526;2024-01-11T08:30:41;45.08;;;16.88;;
52368;SDS011;38298;50.346;3.526;2024-01-11T08:33:07;44.63;;;16.73;;
52368;SDS011;38298;50.346;3.526;2024-01-11T08:35:34;38.30;;;15.75;;
52368;SDS011;38298;50.346;3.526;2024-01-11T08:38:00;40.08;;;16.23;;
52368;SDS011;38298;50.346;3.526;2024-01-11T08:40:28;40.90;;;17.10;;
52368;SDS011;38298;50.346;3.526;2024-01-11T08:42:54;48.53;;;16.55;;
52368;SDS011;38298;50.346;3.526;2024-01-11T08:45:20;43.63;;;16.38;;
52368;SDS011;38298;50.346;3.526;2024-01-11T08:47:47;45.00;;;16.25;;
52368;SDS011;38298;50.346;3.526;2024-01-11T08:50:14;47.13;;;17.42;;
52368;SDS011;38298;50.346;3.526;2024-01-11T08:52:40;43.33;;;16.23;;
52368;SDS011;38298;50.346;3.526;2024-01-11T08:55:06;46.80;;;17.42;;
52368;SDS011;38298;50.346;3.526;2024-01-11T08:57:33;44.05;;;17.70;;
52368;SDS011;38298;50.346;3.526;2024-01-11T09:00:01;43.13;;;15.80;;
52368;SDS011;38298;50.346;3.526;2024-01-11T09:02:27;43.58;;;16.88;;
52368;SDS011;38298;50.346;3.526;2024-01-11T09:04:53;44.22;;;16.10;;
52368;SDS011;38298;50.346;3.526;2024-01-11T09:07:19;44.67;;;16.58;;
52368;SDS011;38298;50.346;3.526;2024-01-11T09:09:45;45.33;;;17.23;;
52368;SDS011;38298;50.346;3.526;2024-01-11T09:12:11;44.08;;;16.92;;
52368;SDS011;38298;50.346;3.526;2024-01-11T09:14:37;53.30;;;16.55;;
52368;SDS011;38298;50.346;3.526;2024-01-11T09:17:04;43.50;;;16.05;;
52368;SDS011;38298;50.346;3.526;2024-01-11T09:19:32;40.05;;;15.77;;
52368;SDS011;38298;50.346;3.526;2024-01-11T09:22:02;44.13;;;17.13;;
52368;SDS011;38298;50.346;3.526;2024-01-11T09:24:28;49.17;;;18.20;;
52368;SDS011;38298;50.346;3.526;2024-01-11T09:26:54;45.55;;;17.52;;
52368;SDS011;38298;50.346;3.526;2024-01-11T09:29:20;43.67;;;17.42;;
52368;SDS011;38298;50.346;3.526;2024-01-11T09:31:46;52.08;;;17.42;;
52368;SDS011;38298;50.346;3.526;2024-01-11T09:34:12;44.38;;;17.40;;
52368;SDS011;38298;50.346;3.526;2024-01-11T09:36:38;52.97;;;16.95;;
52368;SDS011;38298;50.346;3.526;2024-01-11T09:39:07;41.22;;;17.20;;
52368;SDS011;38298;50.346;3.526;2024-01-11T09:41:35;51.22;;;17.77;;
52368;SDS011;38298;50.346;3.526;2024-01-11T09:44:02;46.33;;;17.45;;
52368;SDS011;38298;50.346;3.526;2024-01-11T09:46:31;43.70;;;17.63;;
52368;SDS011;38298;50.346;3.526;2024-01-11T09:48:57;44.30;;;18.08;;
52368;SDS011;38298;50.346;3.526;2024-01-11T09:51:24;46.55;;;18.35;;
52368;SDS011;38298;50.346;3.526;2024-01-11T09:53:51;45.70;;;17.77;;
52368;SDS011;38298;50.346;3.526;2024-01-11T09:56:18;40.58;;;17.08;;
52368;SDS011;38298;50.346;3.526;2024-01-11T09:58:46;46.90;;;18.08;;
52368;SDS011;38298;50.346;3.526;2024-01-11T10:01:15;43.47;;;17.63;;
52368;SDS011;38298;50.346;3.526;2024-01-11T10:03:42;40.90;;;17.25;;
52368;SDS011;38298;50.346;3.526;2024-01-11T10:06:08;47.88;;;16.77;;
52368;SDS011;38298;50.346;3.526;2024-01-11T10:08:34;45.60;;;18.45;;
52368;SDS011;38298;50.346;3.526;2024-01-11T10:11:01;49.35;;;18.27;;
52368;SDS011;38298;50.346;3.526;2024-01-11T10:13:28;44.47;;;18.50;;
52368;SDS011;38298;50.346;3.526;2024-01-11T10:18:51;44.13;;;18.27;;
52368;SDS011;38298;50.346;3.526;2024-01-11T10:21:19;41.65;;;16.70;;
52368;SDS011;38298;50.346;3.526;2024-01-11T10:23:45;40.90;;;17.67;;
52368;SDS011;38298;50.346;3.526;2024-01-11T10:26:11;51.28;;;18.98;;
52368;SDS011;38298;50.346;3.526;2024-01-11T10:28:37;45.60;;;18.35;;
52368;SDS011;38298;50.346;3.526;2024-01-11T10:31:03;42.42;;;17.90;;
52368;SDS011;38298;50.346;3.526;2024-01-11T10:33:33;46.57;;;18.70;;
52368;SDS011;38298;50.346;3.526;2024-01-11T10:35:59;43.55;;;18.75;;
52368;SDS011;38298;50.346;3.526;2024-01-11T10:38:26;45.35;;;18.88;;
52368;SDS011;38298;50.346;3.526;2024-01-11T10:40:53;50.53;;;19.58;;
52368;SDS011;38298;50.346;3.526;2024-01-11T10:43:21;46.05;;;19.48;;
52368;SDS011;38298;50.346;3.526;2024-01-11T10:45:50;48.28;;;19.00;;
52368;SDS011;38298;50.346;3.526;2024-01-11T10:48:22;48.33;;;19.35;;
52368;SDS011;38298;50.346;3.526;2024-01-11T10:50:49;48.85;;;18.95;;
52368;SDS011;38298;50.346;3.526;2024-01-11T10:55:55;43.22;;;18.10;;
52368;SDS011;38298;50.346;3.526;2024-01-11T10:58:21;48.03;;;18.67;;
52368;SDS011;38298;50.346;3.526;2024-01-11T11:00:48;46.00;;;18.52;;
52368;SDS011;38298;50.346;3.526;2024-01-11T11:03:15;52.40;;;20.80;;
52368;SDS011;38298;50.346;3.526;2024-01-11T11:05:41;45.38;;;18.27;;
52368;SDS011;38298;50.346;3.526;2024-01-11T11:08:08;48.70;;;19.85;;
52368;SDS011;38298;50.346;3.526;2024-01-11T11:10:35;49.05;;;19.77;;
52368;SDS011;38298;50.346;3.526;2024-01-11T11:13:02;51.72;;;19.60;;
52368;SDS011;38298;50.346;3.526;2024-01-11T11:15:29;53.60;;;19.35;;
52368;SDS011;38298;50.346;3.526;2024-01-11T11:17:55;47.78;;;19.63;;
52368;SDS011;38298;50.346;3.526;2024-01-11T11:20:21;46.75;;;19.45;;
52368;SDS011;38298;50.346;3.526;2024-01-11T11:23:09;42.67;;;18.33;;
52368;SDS011;38298;50.346;3.526;2024-01-11T11:25:38;46.78;;;18.38;;
52368;SDS011;38298;50.346;3.526;2024-01-11T11:28:05;41.60;;;18.30;;
52368;SDS011;38298;50.346;3.526;2024-01-11T11:30:41;50.03;;;18.55;;
52368;SDS011;38298;50.346;3.526;2024-01-11T11:33:16;47.17;;;19.30;;
52368;SDS011;38298;50.346;3.526;2024-01-11T11:35:43;46.30;;;18.70;;
52368;SDS011;38298;50.346;3.526;2024-01-11T11:38:16;40.80;;;18.20;;
52368;SDS011;38298;50.346;3.526;2024-01-11T11:40:42;45.35;;;18.33;;
52368;SDS011;38298;50.346;3.526;2024-01-11T11:43:10;43.10;;;17.85;;
52368;SDS011;38298;50.346;3.526;2024-01-11T11:45:36;45.58;;;18.08;;
52368;SDS011;38298;50.346;3.526;2024-01-11T11:48:49;48.15;;;17.92;;
52368;SDS011;38298;50.346;3.526;2024-01-11T11:51:00;48.30;;;18.70;;
52368;SDS011;38298;50.346;3.526;2024-01-11T11:53:26;44.35;;;19.58;;
52368;SDS011;38298;50.346;3.526;2024-01-11T11:55:55;48.80;;;19.15;;
52368;SDS011;38298;50.346;3.526;2024-01-11T11:58:22;44.38;;;18.67;;
52368;SDS011;38298;50.346;3.526;2024-01-11T12:00:48;40.70;;;17.08;;
52368;SDS011;38298;50.346;3.526;2024-01-11T12:03:14;42.00;;;18.05;;
52368;SDS011;38298;50.346;3.526;2024-01-11T12:05:41;43.17;;;18.52;;
52368;SDS011;38298;50.346;3.526;2024-01-11T12:08:08;47.03;;;18.00;;
52368;SDS011;38298;50.346;3.526;2024-01-11T12:10:34;43.35;;;17.15;;
52368;SDS011;38298;50.346;3.526;2024-01-11T12:13:00;40.75;;;17.05;;
52368;SDS011;38298;50.346;3.526;2024-01-11T12:15:26;41.67;;;17.92;;
52368;SDS011;38298;50.346;3.526;2024-01-11T12:17:59;40.90;;;17.35;;
52368;SDS011;38298;50.346;3.526;2024-01-11T12:20:25;38.15;;;17.15;;
52368;SDS011;38298;50.346;3.526;2024-01-11T12:22:51;45.22;;;17.98;;
52368;SDS011;38298;50.346;3.526;2024-01-11T12:25:17;40.97;;;17.55;;
52368;SDS011;38298;50.346;3.526;2024-01-11T12:27:43;43.47;;;17.45;;
52368;SDS011;38298;50.346;3.526;2024-01-11T12:30:10;43.97;;;17.05;;
52368;SDS011;38298;50.346;3.526;2024-01-11T12:32:39;40.72;;;16.75;;
52368;SDS011;38298;50.346;3.526;2024-01-11T12:35:05;40.45;;;16.05;;
52368;SDS011;38298;50.346;3.526;2024-01-11T12:37:32;41.92;;;17.75;;
52368;SDS011;38298;50.346;3.526;2024-01-11T12:39:58;41.17;;;16.75;;
52368;SDS011;38298;50.346;3.526;2024-01-11T12:42:24;41.55;;;17.90;;
52368;SDS011;38298;50.346;3.526;2024-01-11T12:44:50;39.55;;;17.08;;
52368;SDS011;38298;50.346;3.526;2024-01-11T12:47:17;42.85;;;17.90;;
52368;SDS011;38298;50.346;3.526;2024-01-11T12:49:46;39.80;;;16.95;;
52368;SDS011;38298;50.346;3.526;2024-01-11T12:52:18;38.38;;;16.80;;
52368;SDS011;38298;50.346;3.526;2024-01-11T12:54:51;40.88;;;16.60;;
52368;SDS011;38298;50.346;3.526;2024-01-11T12:57:18;36.15;;;16.67;;
52368;SDS011;38298;50.346;3.526;2024-01-11T12:59:47;36.70;;;16.23;;
52368;SDS011;38298;50.346;3.526;2024-01-11T13:02:13;39.20;;;16.10;;
52368;SDS011;38298;50.346;3.526;2024-01-11T13:04:42;42.72;;;17.35;;
52368;SDS011;38298;50.346;3.526;2024-01-11T13:07:11;38.67;;;16.35;;
52368;SDS011;38298;50.346;3.526;2024-01-11T13:09:38;37.60;;;17.13;;
52368;SDS011;38298;50.346;3.526;2024-01-11T13:12:04;39.28;;;16.42;;
52368;SDS011;38298;50.346;3.526;2024-01-11T13:14:30;34.47;;;16.38;;
52368;SDS011;38298;50.346;3.526;2024-01-11T13:16:57;36.30;;;16.45;;
52368;SDS011;38298;50.346;3.526;2024-01-11T13:19:23;35.13;;;16.00;;
52368;SDS011;38298;50.346;3.526;2024-01-11T13:21:49;38.78;;;15.82;;
52368;SDS011;38298;50.346;3.526;2024-01-11T13:24:15;39.00;;;15.80;;
52368;SDS011;38298;50.346;3.526;2024-01-11T13:26:41;38.63;;;16.60;;
52368;SDS011;38298;50.346;3.526;2024-01-11T13:29:07;37.72;;;15.77;;
52368;SDS011;38298;50.346;3.526;2024-01-11T13:31:33;37.40;;;16.42;;
52368;SDS011;38298;50.346;3.526;2024-01-11T13:33:59;36.92;;;15.60;;
52368;SDS011;38298;50.346;3.526;2024-01-11T13:36:25;30.13;;;14.82;;
52368;SDS011;38298;50.346;3.526;2024-01-11T13:38:51;38.22;;;16.45;;
52368;SDS011;38298;50.346;3.526;2024-01-11T13:41:18;40.13;;;16.02;;
52368;SDS011;38298;50.346;3.526;2024-01-11T13:43:44;34.55;;;14.77;;
52368;SDS011;38298;50.346;3.526;2024-01-11T13:46:10;37.10;;;16.15;;
52368;SDS011;38298;50.346;3.526;2024-01-11T13:48:38;37.38;;;15.93;;
52368;SDS011;38298;50.346;3.526;2024-01-11T13:51:04;34.08;;;15.43;;
52368;SDS011;38298;50.346;3.526;2024-01-11T13:53:30;35.97;;;15.60;;
52368;SDS011;38298;50.346;3.526;2024-01-11T13:55:56;34.78;;;15.10;;
52368;SDS011;38298;50.346;3.526;2024-01-11T13:58:22;33.03;;;15.40;;
52368;SDS011;38298;50.346;3.526;2024-01-11T14:00:48;35.63;;;14.75;;
52368;SDS011;38298;50.346;3.526;2024-01-11T14:03:14;33.40;;;15.40;;
52368;SDS011;38298;50.346;3.526;2024-01-11T14:05:40;34.00;;;14.50;;
52368;SDS011;38298;50.346;3.526;2024-01-11T14:08:06;35.85;;;14.60;;
52368;SDS011;38298;50.346;3.526;2024-01-11T14:10:33;35.80;;;14.57;;
52368;SDS011;38298;50.346;3.526;2024-01-11T14:13:00;30.83;;;14.38;;
52368;SDS011;38298;50.346;3.526;2024-01-11T14:15:26;33.38;;;13.75;;
52368;SDS011;38298;50.346;3.526;2024-01-11T14:17:52;30.13;;;13.63;;
52368;SDS011;38298;50.346;3.526;2024-01-11T14:20:19;31.73;;;14.20;;
52368;SDS011;38298;50.346;3.526;2024-01-11T14:22:46;31.85;;;14.32;;
52368;SDS011;38298;50.346;3.526;2024-01-11T14:25:20;32.38;;;14.15;;
52368;SDS011;38298;50.346;3.526;2024-01-11T14:27:47;31.50;;;13.55;;
52368;SDS011;38298;50.346;3.526;2024-01-11T14:30:13;28.67;;;13.23;;